KPIM/PIM METAR and TAF weather

Enter ICAO airport designator
Station Type Date Time Source
KPIM METAR 2021/01/27 12:35 UTC NOAA

KPIM 271235Z AUTO 02006KT 10SM SCT036 OVC045 11/08 A3000 RMK AO2 T01120082


Station Type Date Time Source
KPIM Decoded METAR 2021/01/27 12:35 UTC NOAA

Station name not available
Jan 27, 2021 - 07:35 AM EST / 2021.01.27 1235 UTC
Wind: from the NNE (020 degrees) at 7 MPH (6 KT):0
Visibility: 10 mile(s):0
Sky conditions: overcast
Temperature: 52.2 F (11.2 C)
Dew Point: 46.8 F (8.2 C)
Relative Humidity: 81%
Pressure (altimeter): 30 in. Hg (1015 hPa)
ob: KPIM 271235Z AUTO 02006KT 10SM SCT036 OVC045 11/08 A3000 RMK AO2 T01120082
cycle: 12

Station Type Date Time Source
KPIM TAF UTC NOAA

Error!

Example: see airport list